Terminal Aerodrome Forecast
Issued by NWS

Home | Current Version | Previous Version | Text Only | Print | Product List | Glossary Off
Versions: 1 2 3 4 5 6 7 8 9 10 11 12 13 14 15 16 17 18 19 20 21 22 23 24 25 26 27 28 29 30 31

000
FTUS43 KICT 221654 AAB
TAFHUT
TAF AMD
KHUT 221654Z 2217/2312 14008KT P6SM VCSH SCT010 OVC015
      TEMPO 2217/2221 6SM -RA BR BKN010 OVC015
     FM230100 13011KT 5SM -DZ BR OVC006=

USA.gov is the U.S. government's official web portal to all federal, state and local government web resources and services.